sensor_id;sensor_type;location;lat;lon;timestamp;P1;durP1;ratioP1;P2;durP2;ratioP2
19691;SDS011;42748;50.016;19.890;2022-12-29T00:00:55;17.63;;;8.03;;
19691;SDS011;42748;50.016;19.890;2022-12-29T00:03:25;21.17;;;8.93;;
19691;SDS011;42748;50.016;19.890;2022-12-29T00:05:56;20.17;;;9.13;;
19691;SDS011;42748;50.016;19.890;2022-12-29T00:08:24;22.93;;;9.13;;
19691;SDS011;42748;50.016;19.890;2022-12-29T00:11:07;22.00;;;9.43;;
19691;SDS011;42748;50.016;19.890;2022-12-29T00:13:39;19.03;;;8.60;;
19691;SDS011;42748;50.016;19.890;2022-12-29T00:16:26;21.13;;;8.67;;
19691;SDS011;42748;50.016;19.890;2022-12-29T00:18:54;18.40;;;8.33;;
19691;SDS011;42748;50.016;19.890;2022-12-29T00:21:21;19.97;;;9.00;;
19691;SDS011;42748;50.016;19.890;2022-12-29T00:24:15;15.30;;;6.90;;
19691;SDS011;42748;50.016;19.890;2022-12-29T00:29:49;17.03;;;7.30;;
19691;SDS011;42748;50.016;19.890;2022-12-29T00:32:35;14.20;;;6.23;;
19691;SDS011;42748;50.016;19.890;2022-12-29T00:37:51;11.43;;;5.17;;
19691;SDS011;42748;50.016;19.890;2022-12-29T00:40:39;11.37;;;5.03;;
19691;SDS011;42748;50.016;19.890;2022-12-29T00:43:25;9.67;;;4.47;;
19691;SDS011;42748;50.016;19.890;2022-12-29T00:46:11;12.43;;;4.97;;
19691;SDS011;42748;50.016;19.890;2022-12-29T00:48:45;11.10;;;4.70;;
19691;SDS011;42748;50.016;19.890;2022-12-29T00:51:30;9.50;;;4.17;;
19691;SDS011;42748;50.016;19.890;2022-12-29T00:53:58;10.73;;;4.20;;
19691;SDS011;42748;50.016;19.890;2022-12-29T00:56:25;8.90;;;4.20;;
19691;SDS011;42748;50.016;19.890;2022-12-29T00:58:52;10.27;;;4.40;;
19691;SDS011;42748;50.016;19.890;2022-12-29T01:01:19;10.03;;;4.27;;
19691;SDS011;42748;50.016;19.890;2022-12-29T01:03:47;10.40;;;4.60;;
19691;SDS011;42748;50.016;19.890;2022-12-29T01:06:14;7.30;;;4.10;;
19691;SDS011;42748;50.016;19.890;2022-12-29T01:08:43;9.40;;;4.03;;
19691;SDS011;42748;50.016;19.890;2022-12-29T01:11:11;11.63;;;4.43;;
19691;SDS011;42748;50.016;19.890;2022-12-29T01:13:39;8.37;;;4.50;;
19691;SDS011;42748;50.016;19.890;2022-12-29T01:16:10;9.10;;;4.20;;
19691;SDS011;42748;50.016;19.890;2022-12-29T01:18:37;9.00;;;4.27;;
19691;SDS011;42748;50.016;19.890;2022-12-29T01:21:04;9.27;;;4.37;;
19691;SDS011;42748;50.016;19.890;2022-12-29T01:23:32;10.73;;;4.33;;
19691;SDS011;42748;50.016;19.890;2022-12-29T01:26:09;8.57;;;4.37;;
19691;SDS011;42748;50.016;19.890;2022-12-29T01:28:40;8.80;;;4.03;;
19691;SDS011;42748;50.016;19.890;2022-12-29T01:31:08;8.57;;;4.10;;
19691;SDS011;42748;50.016;19.890;2022-12-29T01:33:37;9.60;;;3.80;;
19691;SDS011;42748;50.016;19.890;2022-12-29T01:36:05;9.10;;;4.00;;
19691;SDS011;42748;50.016;19.890;2022-12-29T01:38:34;9.90;;;4.40;;
19691;SDS011;42748;50.016;19.890;2022-12-29T01:41:03;7.90;;;4.20;;
19691;SDS011;42748;50.016;19.890;2022-12-29T01:46:16;9.30;;;3.93;;
19691;SDS011;42748;50.016;19.890;2022-12-29T01:48:55;8.37;;;4.27;;
19691;SDS011;42748;50.016;19.890;2022-12-29T01:51:25;10.70;;;4.47;;
19691;SDS011;42748;50.016;19.890;2022-12-29T01:53:54;11.20;;;4.57;;
19691;SDS011;42748;50.016;19.890;2022-12-29T01:56:24;8.83;;;4.10;;
19691;SDS011;42748;50.016;19.890;2022-12-29T01:58:58;10.90;;;4.30;;
19691;SDS011;42748;50.016;19.890;2022-12-29T02:01:29;10.53;;;4.07;;
19691;SDS011;42748;50.016;19.890;2022-12-29T02:03:59;7.57;;;3.70;;
19691;SDS011;42748;50.016;19.890;2022-12-29T02:06:33;6.60;;;3.50;;
19691;SDS011;42748;50.016;19.890;2022-12-29T02:09:06;7.23;;;3.47;;
19691;SDS011;42748;50.016;19.890;2022-12-29T02:11:33;8.57;;;3.70;;
19691;SDS011;42748;50.016;19.890;2022-12-29T02:14:07;8.30;;;3.83;;
19691;SDS011;42748;50.016;19.890;2022-12-29T02:30:08;7.83;;;3.50;;
19691;SDS011;42748;50.016;19.890;2022-12-29T02:38:34;9.67;;;3.90;;
19691;SDS011;42748;50.016;19.890;2022-12-29T02:41:09;6.80;;;3.87;;
19691;SDS011;42748;50.016;19.890;2022-12-29T02:47:35;10.63;;;4.67;;
19691;SDS011;42748;50.016;19.890;2022-12-29T02:50:06;9.37;;;4.80;;
19691;SDS011;42748;50.016;19.890;2022-12-29T02:52:39;11.57;;;5.00;;
19691;SDS011;42748;50.016;19.890;2022-12-29T02:55:15;11.77;;;6.00;;
19691;SDS011;42748;50.016;19.890;2022-12-29T02:57:42;13.47;;;6.17;;
19691;SDS011;42748;50.016;19.890;2022-12-29T03:00:12;11.97;;;5.70;;
19691;SDS011;42748;50.016;19.890;2022-12-29T03:05:56;11.70;;;5.27;;
19691;SDS011;42748;50.016;19.890;2022-12-29T03:08:39;9.53;;;5.30;;
19691;SDS011;42748;50.016;19.890;2022-12-29T03:11:18;10.50;;;5.40;;
19691;SDS011;42748;50.016;19.890;2022-12-29T03:14:08;11.60;;;4.93;;
19691;SDS011;42748;50.016;19.890;2022-12-29T03:17:09;9.33;;;4.43;;
19691;SDS011;42748;50.016;19.890;2022-12-29T03:19:47;10.73;;;5.20;;
19691;SDS011;42748;50.016;19.890;2022-12-29T03:22:22;10.47;;;4.63;;
19691;SDS011;42748;50.016;19.890;2022-12-29T03:27:45;9.87;;;4.93;;
19691;SDS011;42748;50.016;19.890;2022-12-29T03:30:41;12.60;;;5.33;;
19691;SDS011;42748;50.016;19.890;2022-12-29T03:33:12;10.37;;;4.90;;
19691;SDS011;42748;50.016;19.890;2022-12-29T03:35:44;11.37;;;5.77;;
19691;SDS011;42748;50.016;19.890;2022-12-29T03:38:17;12.23;;;5.10;;
19691;SDS011;42748;50.016;19.890;2022-12-29T03:40:51;9.07;;;5.13;;
19691;SDS011;42748;50.016;19.890;2022-12-29T03:43:25;11.07;;;4.97;;
19691;SDS011;42748;50.016;19.890;2022-12-29T03:45:55;12.93;;;5.50;;
19691;SDS011;42748;50.016;19.890;2022-12-29T03:48:22;10.43;;;5.43;;
19691;SDS011;42748;50.016;19.890;2022-12-29T03:50:52;13.37;;;5.67;;
19691;SDS011;42748;50.016;19.890;2022-12-29T03:53:21;12.23;;;6.00;;
19691;SDS011;42748;50.016;19.890;2022-12-29T03:55:48;13.30;;;5.83;;
19691;SDS011;42748;50.016;19.890;2022-12-29T03:58:16;13.57;;;6.30;;
19691;SDS011;42748;50.016;19.890;2022-12-29T04:01:02;12.23;;;6.07;;
19691;SDS011;42748;50.016;19.890;2022-12-29T04:03:33;12.67;;;6.57;;
19691;SDS011;42748;50.016;19.890;2022-12-29T04:06:01;15.27;;;6.43;;
19691;SDS011;42748;50.016;19.890;2022-12-29T04:08:36;15.17;;;7.13;;
19691;SDS011;42748;50.016;19.890;2022-12-29T04:11:05;16.13;;;6.97;;
19691;SDS011;42748;50.016;19.890;2022-12-29T04:13:33;14.53;;;6.97;;
19691;SDS011;42748;50.016;19.890;2022-12-29T04:16:08;15.60;;;7.43;;
19691;SDS011;42748;50.016;19.890;2022-12-29T04:18:39;14.47;;;7.20;;
19691;SDS011;42748;50.016;19.890;2022-12-29T04:21:07;15.83;;;6.93;;
19691;SDS011;42748;50.016;19.890;2022-12-29T04:23:37;16.70;;;6.67;;
19691;SDS011;42748;50.016;19.890;2022-12-29T04:26:08;13.93;;;6.40;;
19691;SDS011;42748;50.016;19.890;2022-12-29T04:28:49;14.80;;;6.70;;
19691;SDS011;42748;50.016;19.890;2022-12-29T04:31:37;16.90;;;6.87;;
19691;SDS011;42748;50.016;19.890;2022-12-29T04:34:06;13.43;;;5.93;;
19691;SDS011;42748;50.016;19.890;2022-12-29T04:36:37;14.90;;;5.53;;
19691;SDS011;42748;50.016;19.890;2022-12-29T04:39:08;11.33;;;5.37;;
19691;SDS011;42748;50.016;19.890;2022-12-29T04:41:38;9.33;;;4.43;;
19691;SDS011;42748;50.016;19.890;2022-12-29T04:44:08;9.77;;;4.30;;
19691;SDS011;42748;50.016;19.890;2022-12-29T04:46:58;8.30;;;4.20;;
19691;SDS011;42748;50.016;19.890;2022-12-29T04:49:54;8.07;;;3.93;;
19691;SDS011;42748;50.016;19.890;2022-12-29T04:52:41;8.70;;;4.10;;
19691;SDS011;42748;50.016;19.890;2022-12-29T04:55:11;7.40;;;4.10;;
19691;SDS011;42748;50.016;19.890;2022-12-29T04:57:44;9.57;;;4.03;;
19691;SDS011;42748;50.016;19.890;2022-12-29T05:00:16;8.27;;;4.00;;
19691;SDS011;42748;50.016;19.890;2022-12-29T05:02:44;9.27;;;4.40;;
19691;SDS011;42748;50.016;19.890;2022-12-29T05:05:13;7.47;;;3.50;;
19691;SDS011;42748;50.016;19.890;2022-12-29T05:07:44;10.40;;;4.07;;
19691;SDS011;42748;50.016;19.890;2022-12-29T05:10:12;8.87;;;4.10;;
19691;SDS011;42748;50.016;19.890;2022-12-29T05:12:44;9.20;;;4.20;;
19691;SDS011;42748;50.016;19.890;2022-12-29T05:15:13;10.47;;;4.30;;
19691;SDS011;42748;50.016;19.890;2022-12-29T05:17:42;7.43;;;3.70;;
19691;SDS011;42748;50.016;19.890;2022-12-29T05:20:10;7.17;;;3.90;;
19691;SDS011;42748;50.016;19.890;2022-12-29T05:22:41;8.07;;;4.00;;
19691;SDS011;42748;50.016;19.890;2022-12-29T05:25:08;9.13;;;3.63;;
19691;SDS011;42748;50.016;19.890;2022-12-29T05:27:50;10.67;;;4.60;;
19691;SDS011;42748;50.016;19.890;2022-12-29T05:30:43;7.63;;;3.93;;
19691;SDS011;42748;50.016;19.890;2022-12-29T05:33:11;8.10;;;3.90;;
19691;SDS011;42748;50.016;19.890;2022-12-29T05:35:39;10.77;;;4.00;;
19691;SDS011;42748;50.016;19.890;2022-12-29T05:38:06;8.30;;;4.27;;
19691;SDS011;42748;50.016;19.890;2022-12-29T05:40:33;8.13;;;3.87;;
19691;SDS011;42748;50.016;19.890;2022-12-29T05:43:05;11.40;;;3.73;;
19691;SDS011;42748;50.016;19.890;2022-12-29T05:45:59;7.90;;;3.77;;
19691;SDS011;42748;50.016;19.890;2022-12-29T05:48:52;10.63;;;4.20;;
19691;SDS011;42748;50.016;19.890;2022-12-29T05:51:36;8.93;;;4.27;;
19691;SDS011;42748;50.016;19.890;2022-12-29T05:54:03;11.20;;;4.87;;
19691;SDS011;42748;50.016;19.890;2022-12-29T05:56:30;8.93;;;5.00;;
19691;SDS011;42748;50.016;19.890;2022-12-29T05:58:59;11.93;;;4.87;;
19691;SDS011;42748;50.016;19.890;2022-12-29T06:01:27;10.50;;;4.80;;
19691;SDS011;42748;50.016;19.890;2022-12-29T06:03:54;11.17;;;4.93;;
19691;SDS011;42748;50.016;19.890;2022-12-29T06:06:21;13.10;;;5.23;;
19691;SDS011;42748;50.016;19.890;2022-12-29T06:08:50;11.17;;;5.10;;
19691;SDS011;42748;50.016;19.890;2022-12-29T06:11:18;9.13;;;4.13;;
19691;SDS011;42748;50.016;19.890;2022-12-29T06:13:52;8.93;;;4.33;;
19691;SDS011;42748;50.016;19.890;2022-12-29T06:16:19;10.70;;;4.47;;
19691;SDS011;42748;50.016;19.890;2022-12-29T06:18:49;12.33;;;4.30;;
19691;SDS011;42748;50.016;19.890;2022-12-29T06:21:16;9.20;;;4.33;;
19691;SDS011;42748;50.016;19.890;2022-12-29T06:23:44;8.77;;;4.17;;
19691;SDS011;42748;50.016;19.890;2022-12-29T06:26:13;10.00;;;4.30;;
19691;SDS011;42748;50.016;19.890;2022-12-29T06:28:40;9.57;;;4.43;;
19691;SDS011;42748;50.016;19.890;2022-12-29T06:31:11;8.83;;;4.43;;
19691;SDS011;42748;50.016;19.890;2022-12-29T06:33:38;8.70;;;4.03;;
19691;SDS011;42748;50.016;19.890;2022-12-29T06:36:06;8.90;;;4.10;;
19691;SDS011;42748;50.016;19.890;2022-12-29T06:38:33;10.23;;;4.13;;
19691;SDS011;42748;50.016;19.890;2022-12-29T06:41:01;8.57;;;4.30;;
19691;SDS011;42748;50.016;19.890;2022-12-29T06:43:34;11.97;;;4.33;;
19691;SDS011;42748;50.016;19.890;2022-12-29T06:46:18;8.23;;;4.23;;
19691;SDS011;42748;50.016;19.890;2022-12-29T06:48:45;9.17;;;4.50;;
19691;SDS011;42748;50.016;19.890;2022-12-29T06:51:12;8.70;;;4.40;;
19691;SDS011;42748;50.016;19.890;2022-12-29T06:53:39;10.57;;;4.73;;
19691;SDS011;42748;50.016;19.890;2022-12-29T06:56:07;10.20;;;4.83;;
19691;SDS011;42748;50.016;19.890;2022-12-29T06:58:34;10.17;;;4.30;;
19691;SDS011;42748;50.016;19.890;2022-12-29T07:01:01;8.93;;;4.40;;
19691;SDS011;42748;50.016;19.890;2022-12-29T07:03:29;11.27;;;5.30;;
19691;SDS011;42748;50.016;19.890;2022-12-29T07:05:56;10.13;;;4.20;;
19691;SDS011;42748;50.016;19.890;2022-12-29T07:08:24;7.63;;;4.10;;
19691;SDS011;42748;50.016;19.890;2022-12-29T07:10:51;10.33;;;4.13;;
19691;SDS011;42748;50.016;19.890;2022-12-29T07:13:18;7.97;;;3.90;;
19691;SDS011;42748;50.016;19.890;2022-12-29T07:15:46;8.63;;;3.97;;
19691;SDS011;42748;50.016;19.890;2022-12-29T07:18:13;7.53;;;3.80;;
19691;SDS011;42748;50.016;19.890;2022-12-29T07:20:40;8.77;;;3.70;;
19691;SDS011;42748;50.016;19.890;2022-12-29T07:23:07;7.07;;;3.40;;
19691;SDS011;42748;50.016;19.890;2022-12-29T07:25:35;6.83;;;3.47;;
19691;SDS011;42748;50.016;19.890;2022-12-29T07:28:03;8.07;;;3.80;;
19691;SDS011;42748;50.016;19.890;2022-12-29T07:30:30;7.87;;;3.63;;
19691;SDS011;42748;50.016;19.890;2022-12-29T07:32:57;8.80;;;3.97;;
19691;SDS011;42748;50.016;19.890;2022-12-29T07:35:24;12.40;;;4.20;;
19691;SDS011;42748;50.016;19.890;2022-12-29T07:37:52;14.43;;;3.83;;
19691;SDS011;42748;50.016;19.890;2022-12-29T07:40:19;16.50;;;4.50;;
19691;SDS011;42748;50.016;19.890;2022-12-29T07:42:46;9.30;;;4.30;;
19691;SDS011;42748;50.016;19.890;2022-12-29T07:45:15;11.65;;;4.30;;
19691;SDS011;42748;50.016;19.890;2022-12-29T07:48:01;9.03;;;3.87;;
19691;SDS011;42748;50.016;19.890;2022-12-29T07:50:29;11.75;;;4.68;;
19691;SDS011;42748;50.016;19.890;2022-12-29T07:52:56;8.15;;;4.43;;
19691;SDS011;42748;50.016;19.890;2022-12-29T07:55:23;14.18;;;5.10;;
19691;SDS011;42748;50.016;19.890;2022-12-29T07:57:54;15.60;;;5.03;;
19691;SDS011;42748;50.016;19.890;2022-12-29T08:00:24;9.70;;;4.53;;
19691;SDS011;42748;50.016;19.890;2022-12-29T08:02:52;9.70;;;4.50;;
19691;SDS011;42748;50.016;19.890;2022-12-29T08:05:19;8.90;;;4.43;;
19691;SDS011;42748;50.016;19.890;2022-12-29T08:07:46;7.55;;;4.03;;
19691;SDS011;42748;50.016;19.890;2022-12-29T08:10:14;9.38;;;4.30;;
19691;SDS011;42748;50.016;19.890;2022-12-29T08:12:42;13.73;;;4.47;;
19691;SDS011;42748;50.016;19.890;2022-12-29T08:15:10;9.80;;;3.70;;
19691;SDS011;42748;50.016;19.890;2022-12-29T08:17:38;8.73;;;4.15;;
19691;SDS011;42748;50.016;19.890;2022-12-29T08:20:06;10.52;;;4.25;;
19691;SDS011;42748;50.016;19.890;2022-12-29T08:22:33;8.40;;;4.13;;
19691;SDS011;42748;50.016;19.890;2022-12-29T08:25:01;11.48;;;4.07;;
19691;SDS011;42748;50.016;19.890;2022-12-29T08:27:28;12.25;;;5.03;;
19691;SDS011;42748;50.016;19.890;2022-12-29T08:29:55;16.88;;;5.65;;
19691;SDS011;42748;50.016;19.890;2022-12-29T08:32:22;12.10;;;5.53;;
19691;SDS011;42748;50.016;19.890;2022-12-29T08:34:49;12.77;;;4.95;;
19691;SDS011;42748;50.016;19.890;2022-12-29T08:37:16;16.70;;;4.97;;
19691;SDS011;42748;50.016;19.890;2022-12-29T08:39:44;12.27;;;4.75;;
19691;SDS011;42748;50.016;19.890;2022-12-29T08:42:11;10.98;;;4.15;;
19691;SDS011;42748;50.016;19.890;2022-12-29T08:44:38;10.95;;;4.38;;
19691;SDS011;42748;50.016;19.890;2022-12-29T08:47:05;10.32;;;4.32;;
19691;SDS011;42748;50.016;19.890;2022-12-29T08:49:32;12.65;;;4.72;;
19691;SDS011;42748;50.016;19.890;2022-12-29T08:52:00;8.32;;;4.32;;
19691;SDS011;42748;50.016;19.890;2022-12-29T08:54:27;10.65;;;4.40;;
19691;SDS011;42748;50.016;19.890;2022-12-29T08:56:54;9.30;;;4.85;;
19691;SDS011;42748;50.016;19.890;2022-12-29T08:59:30;18.88;;;5.53;;
19691;SDS011;42748;50.016;19.890;2022-12-29T09:01:57;12.00;;;5.40;;
19691;SDS011;42748;50.016;19.890;2022-12-29T09:04:25;14.35;;;5.80;;
19691;SDS011;42748;50.016;19.890;2022-12-29T09:06:53;13.60;;;6.10;;
19691;SDS011;42748;50.016;19.890;2022-12-29T09:09:21;12.10;;;5.28;;
19691;SDS011;42748;50.016;19.890;2022-12-29T09:11:48;13.43;;;6.03;;
19691;SDS011;42748;50.016;19.890;2022-12-29T09:14:15;12.38;;;6.63;;
19691;SDS011;42748;50.016;19.890;2022-12-29T09:16:43;16.35;;;6.28;;
19691;SDS011;42748;50.016;19.890;2022-12-29T09:19:28;20.08;;;6.07;;
19691;SDS011;42748;50.016;19.890;2022-12-29T09:21:56;26.10;;;6.78;;
19691;SDS011;42748;50.016;19.890;2022-12-29T09:24:23;19.50;;;6.97;;
19691;SDS011;42748;50.016;19.890;2022-12-29T09:26:51;24.90;;;7.07;;
19691;SDS011;42748;50.016;19.890;2022-12-29T09:29:18;21.33;;;7.50;;
19691;SDS011;42748;50.016;19.890;2022-12-29T09:31:46;16.75;;;6.13;;
19691;SDS011;42748;50.016;19.890;2022-12-29T09:34:13;15.50;;;7.28;;
19691;SDS011;42748;50.016;19.890;2022-12-29T09:36:40;13.10;;;5.25;;
19691;SDS011;42748;50.016;19.890;2022-12-29T09:39:07;11.60;;;5.22;;
19691;SDS011;42748;50.016;19.890;2022-12-29T09:44:26;12.07;;;5.13;;
19691;SDS011;42748;50.016;19.890;2022-12-29T09:47:11;12.18;;;5.07;;
19691;SDS011;42748;50.016;19.890;2022-12-29T09:49:45;15.13;;;5.18;;
19691;SDS011;42748;50.016;19.890;2022-12-29T09:52:37;9.63;;;4.97;;
19691;SDS011;42748;50.016;19.890;2022-12-29T09:55:19;16.73;;;5.30;;
19691;SDS011;42748;50.016;19.890;2022-12-29T09:57:53;14.52;;;5.68;;
19691;SDS011;42748;50.016;19.890;2022-12-29T10:00:32;9.90;;;5.47;;
19691;SDS011;42748;50.016;19.890;2022-12-29T10:03:21;14.60;;;5.60;;
19691;SDS011;42748;50.016;19.890;2022-12-29T10:14:27;10.70;;;5.47;;
19691;SDS011;42748;50.016;19.890;2022-12-29T10:20:20;12.95;;;5.53;;
19691;SDS011;42748;50.016;19.890;2022-12-29T10:25:52;12.05;;;6.03;;
19691;SDS011;42748;50.016;19.890;2022-12-29T10:28:23;15.63;;;6.43;;
19691;SDS011;42748;50.016;19.890;2022-12-29T10:31:00;11.40;;;6.45;;
19691;SDS011;42748;50.016;19.890;2022-12-29T10:33:35;12.20;;;6.78;;
19691;SDS011;42748;50.016;19.890;2022-12-29T10:36:27;11.20;;;6.00;;
19691;SDS011;42748;50.016;19.890;2022-12-29T10:39:16;12.88;;;6.32;;
19691;SDS011;42748;50.016;19.890;2022-12-29T10:44:19;19.20;;;6.82;;
19691;SDS011;42748;50.016;19.890;2022-12-29T10:46:51;14.77;;;7.18;;
19691;SDS011;42748;50.016;19.890;2022-12-29T10:49:23;13.65;;;7.65;;
19691;SDS011;42748;50.016;19.890;2022-12-29T10:51:54;13.43;;;7.25;;
19691;SDS011;42748;50.016;19.890;2022-12-29T10:54:26;12.00;;;7.10;;
19691;SDS011;42748;50.016;19.890;2022-12-29T10:57:08;14.20;;;7.22;;
19691;SDS011;42748;50.016;19.890;2022-12-29T10:59:40;15.18;;;7.63;;
19691;SDS011;42748;50.016;19.890;2022-12-29T11:07:19;15.20;;;7.38;;
19691;SDS011;42748;50.016;19.890;2022-12-29T11:09:52;14.90;;;7.30;;
19691;SDS011;42748;50.016;19.890;2022-12-29T11:17:49;11.45;;;6.35;;
19691;SDS011;42748;50.016;19.890;2022-12-29T11:22:58;15.57;;;6.35;;
19691;SDS011;42748;50.016;19.890;2022-12-29T11:25:26;12.88;;;6.95;;
19691;SDS011;42748;50.016;19.890;2022-12-29T11:28:12;18.08;;;6.70;;
19691;SDS011;42748;50.016;19.890;2022-12-29T11:30:42;13.27;;;6.70;;
19691;SDS011;42748;50.016;19.890;2022-12-29T11:33:09;15.90;;;7.13;;
19691;SDS011;42748;50.016;19.890;2022-12-29T11:35:40;13.18;;;6.75;;
19691;SDS011;42748;50.016;19.890;2022-12-29T11:38:20;11.88;;;5.90;;
19691;SDS011;42748;50.016;19.890;2022-12-29T11:40:49;12.18;;;5.65;;
19691;SDS011;42748;50.016;19.890;2022-12-29T11:46:00;12.75;;;5.50;;
19691;SDS011;42748;50.016;19.890;2022-12-29T11:48:40;11.73;;;5.70;;
19691;SDS011;42748;50.016;19.890;2022-12-29T11:51:09;11.82;;;4.97;;
19691;SDS011;42748;50.016;19.890;2022-12-29T11:53:49;12.27;;;5.05;;
19691;SDS011;42748;50.016;19.890;2022-12-29T11:56:20;9.38;;;4.90;;
19691;SDS011;42748;50.016;19.890;2022-12-29T12:01:58;9.77;;;4.95;;
19691;SDS011;42748;50.016;19.890;2022-12-29T12:04:30;9.07;;;4.30;;
19691;SDS011;42748;50.016;19.890;2022-12-29T12:09:43;12.13;;;4.95;;
19691;SDS011;42748;50.016;19.890;2022-12-29T12:15:08;9.52;;;4.80;;
19691;SDS011;42748;50.016;19.890;2022-12-29T12:18:04;8.60;;;4.63;;
19691;SDS011;42748;50.016;19.890;2022-12-29T12:23:19;9.65;;;4.75;;
19691;SDS011;42748;50.016;19.890;2022-12-29T12:26:09;10.85;;;5.20;;
19691;SDS011;42748;50.016;19.890;2022-12-29T12:34:33;10.00;;;4.90;;
19691;SDS011;42748;50.016;19.890;2022-12-29T12:40:25;11.40;;;5.57;;
19691;SDS011;42748;50.016;19.890;2022-12-29T12:54:26;11.52;;;5.60;;
19691;SDS011;42748;50.016;19.890;2022-12-29T12:57:19;14.13;;;5.90;;
19691;SDS011;42748;50.016;19.890;2022-12-29T12:59:56;11.18;;;5.85;;
19691;SDS011;42748;50.016;19.890;2022-12-29T13:07:50;10.60;;;5.10;;
19691;SDS011;42748;50.016;19.890;2022-12-29T13:16:24;14.07;;;6.78;;
19691;SDS011;42748;50.016;19.890;2022-12-29T13:24:40;12.48;;;5.70;;
19691;SDS011;42748;50.016;19.890;2022-12-29T13:27:18;13.27;;;5.65;;
19691;SDS011;42748;50.016;19.890;2022-12-29T13:30:10;16.42;;;6.00;;
19691;SDS011;42748;50.016;19.890;2022-12-29T13:38:26;13.45;;;6.07;;
19691;SDS011;42748;50.016;19.890;2022-12-29T13:41:39;16.30;;;6.53;;
19691;SDS011;42748;50.016;19.890;2022-12-29T13:50:17;16.98;;;7.00;;
19691;SDS011;42748;50.016;19.890;2022-12-29T13:58:54;13.80;;;6.88;;
19691;SDS011;42748;50.016;19.890;2022-12-29T14:01:39;14.82;;;6.57;;
19691;SDS011;42748;50.016;19.890;2022-12-29T14:04:14;14.80;;;6.35;;
19691;SDS011;42748;50.016;19.890;2022-12-29T14:06:58;13.30;;;6.25;;
19691;SDS011;42748;50.016;19.890;2022-12-29T14:15:04;13.55;;;7.00;;
19691;SDS011;42748;50.016;19.890;2022-12-29T14:17:44;13.35;;;5.20;;
19691;SDS011;42748;50.016;19.890;2022-12-29T14:20:25;13.93;;;6.00;;
19691;SDS011;42748;50.016;19.890;2022-12-29T14:22:57;17.50;;;6.22;;
19691;SDS011;42748;50.016;19.890;2022-12-29T14:28:23;14.13;;;6.60;;
19691;SDS011;42748;50.016;19.890;2022-12-29T14:30:55;11.95;;;6.25;;
19691;SDS011;42748;50.016;19.890;2022-12-29T14:33:24;13.60;;;6.32;;
19691;SDS011;42748;50.016;19.890;2022-12-29T14:35:56;14.70;;;6.35;;
19691;SDS011;42748;50.016;19.890;2022-12-29T14:38:44;14.85;;;6.07;;
19691;SDS011;42748;50.016;19.890;2022-12-29T14:41:16;12.90;;;6.63;;
19691;SDS011;42748;50.016;19.890;2022-12-29T14:49:24;15.18;;;7.15;;
19691;SDS011;42748;50.016;19.890;2022-12-29T14:52:03;15.38;;;7.05;;
19691;SDS011;42748;50.016;19.890;2022-12-29T14:57:21;17.27;;;7.50;;
19691;SDS011;42748;50.016;19.890;2022-12-29T14:59:52;17.98;;;8.07;;
19691;SDS011;42748;50.016;19.890;2022-12-29T15:02:22;15.95;;;7.38;;
19691;SDS011;42748;50.016;19.890;2022-12-29T15:04:53;15.57;;;7.18;;
19691;SDS011;42748;50.016;19.890;2022-12-29T15:07:24;18.02;;;7.38;;
19691;SDS011;42748;50.016;19.890;2022-12-29T15:09:56;16.20;;;7.20;;
19691;SDS011;42748;50.016;19.890;2022-12-29T15:15:00;14.52;;;6.60;;
19691;SDS011;42748;50.016;19.890;2022-12-29T15:17:28;17.05;;;6.93;;
19691;SDS011;42748;50.016;19.890;2022-12-29T15:19:58;18.23;;;7.40;;
19691;SDS011;42748;50.016;19.890;2022-12-29T15:22:27;16.63;;;7.07;;
19691;SDS011;42748;50.016;19.890;2022-12-29T15:24:54;16.38;;;7.28;;
19691;SDS011;42748;50.016;19.890;2022-12-29T15:27:26;14.52;;;7.45;;
19691;SDS011;42748;50.016;19.890;2022-12-29T15:30:00;17.20;;;7.40;;
19691;SDS011;42748;50.016;19.890;2022-12-29T15:32:38;16.10;;;7.82;;
19691;SDS011;42748;50.016;19.890;2022-12-29T15:37:54;19.60;;;8.00;;
19691;SDS011;42748;50.016;19.890;2022-12-29T15:40:23;17.63;;;8.95;;
19691;SDS011;42748;50.016;19.890;2022-12-29T15:45:32;23.38;;;8.98;;
19691;SDS011;42748;50.016;19.890;2022-12-29T15:48:01;23.98;;;8.88;;
19691;SDS011;42748;50.016;19.890;2022-12-29T15:50:30;20.10;;;9.70;;
19691;SDS011;42748;50.016;19.890;2022-12-29T15:53:00;24.27;;;9.75;;
19691;SDS011;42748;50.016;19.890;2022-12-29T15:55:38;22.35;;;9.15;;
19691;SDS011;42748;50.016;19.890;2022-12-29T15:58:18;23.02;;;9.68;;
19691;SDS011;42748;50.016;19.890;2022-12-29T16:00:49;17.60;;;9.07;;
19691;SDS011;42748;50.016;19.890;2022-12-29T16:03:20;28.13;;;10.05;;
19691;SDS011;42748;50.016;19.890;2022-12-29T16:05:54;25.20;;;10.55;;
19691;SDS011;42748;50.016;19.890;2022-12-29T16:10:58;24.92;;;10.32;;
19691;SDS011;42748;50.016;19.890;2022-12-29T16:13:34;22.17;;;10.25;;
19691;SDS011;42748;50.016;19.890;2022-12-29T16:16:28;21.45;;;10.82;;
19691;SDS011;42748;50.016;19.890;2022-12-29T16:18:56;23.48;;;11.02;;
19691;SDS011;42748;50.016;19.890;2022-12-29T16:21:25;23.23;;;10.38;;
19691;SDS011;42748;50.016;19.890;2022-12-29T16:23:57;28.60;;;10.75;;
19691;SDS011;42748;50.016;19.890;2022-12-29T16:26:31;26.38;;;10.65;;
19691;SDS011;42748;50.016;19.890;2022-12-29T16:29:02;25.60;;;10.52;;
19691;SDS011;42748;50.016;19.890;2022-12-29T16:31:34;23.67;;;11.23;;
19691;SDS011;42748;50.016;19.890;2022-12-29T16:37:05;20.10;;;10.02;;
19691;SDS011;42748;50.016;19.890;2022-12-29T16:39:55;22.65;;;10.23;;
19691;SDS011;42748;50.016;19.890;2022-12-29T16:50:33;23.05;;;10.60;;
19691;SDS011;42748;50.016;19.890;2022-12-29T16:53:02;22.38;;;10.27;;
19691;SDS011;42748;50.016;19.890;2022-12-29T16:55:31;25.75;;;11.30;;
19691;SDS011;42748;50.016;19.890;2022-12-29T16:57:59;25.05;;;10.85;;
19691;SDS011;42748;50.016;19.890;2022-12-29T17:00:27;22.17;;;10.32;;
19691;SDS011;42748;50.016;19.890;2022-12-29T17:02:58;24.20;;;11.10;;
19691;SDS011;42748;50.016;19.890;2022-12-29T17:05:27;22.65;;;11.23;;
19691;SDS011;42748;50.016;19.890;2022-12-29T17:07:54;23.85;;;11.15;;
19691;SDS011;42748;50.016;19.890;2022-12-29T17:10:27;23.48;;;11.27;;
19691;SDS011;42748;50.016;19.890;2022-12-29T17:13:15;25.90;;;11.90;;
19691;SDS011;42748;50.016;19.890;2022-12-29T17:15:42;28.25;;;11.63;;
19691;SDS011;42748;50.016;19.890;2022-12-29T17:18:09;26.25;;;12.32;;
19691;SDS011;42748;50.016;19.890;2022-12-29T17:20:39;24.63;;;12.40;;
19691;SDS011;42748;50.016;19.890;2022-12-29T17:23:12;23.50;;;11.40;;
19691;SDS011;42748;50.016;19.890;2022-12-29T17:25:49;25.30;;;11.20;;
19691;SDS011;42748;50.016;19.890;2022-12-29T17:30:49;35.75;;;16.45;;
19691;SDS011;42748;50.016;19.890;2022-12-29T17:33:19;25.10;;;11.60;;
19691;SDS011;42748;50.016;19.890;2022-12-29T17:35:47;24.17;;;11.68;;
19691;SDS011;42748;50.016;19.890;2022-12-29T17:40:50;25.10;;;11.57;;
19691;SDS011;42748;50.016;19.890;2022-12-29T17:43:18;26.17;;;11.23;;
19691;SDS011;42748;50.016;19.890;2022-12-29T17:45:46;23.70;;;11.45;;
19691;SDS011;42748;50.016;19.890;2022-12-29T17:48:19;31.92;;;11.88;;
19691;SDS011;42748;50.016;19.890;2022-12-29T17:50:47;25.25;;;11.93;;
19691;SDS011;42748;50.016;19.890;2022-12-29T17:53:21;22.73;;;11.50;;
19691;SDS011;42748;50.016;19.890;2022-12-29T17:55:51;24.42;;;12.70;;
19691;SDS011;42748;50.016;19.890;2022-12-29T17:58:28;23.15;;;12.05;;